Time;durP1;ratioP1;P1;durP2;ratioP2;P2;SDS_P1;SDS_P2;PMS_P1;PMS_P2;Temp;Humidity;BMP_temperature;BMP_pressure;BME280_temperature;BME280_humidity;BME280_pressure;Samples;Min_cycle;Max_cycle;Signal;HPM_P1;HPM_P2
2024/04/17 00:01:33;;;;;;;1.30;1.10;;;8.50;99.90;;;;;;5405911;26;20211;-67
2024/04/17 00:03:58;;;;;;;1.50;1.20;;;8.20;99.90;;;;;;5405350;26;20748;-68
2024/04/17 00:06:24;;;;;;;0.80;0.77;;;8.10;99.90;;;;;;5405578;26;20323;-66
2024/04/17 00:08:50;;;;;;;1.33;1.20;;;8.10;99.90;;;;;;5405699;26;20218;-67
2024/04/17 00:11:16;;;;;;;1.10;1.00;;;7.90;99.90;;;;;;5405650;26;20232;-66
2024/04/17 00:13:41;;;;;;;0.97;0.73;;;7.80;99.90;;;;;;5405658;26;20330;-67
2024/04/17 00:16:07;;;;;;;1.57;0.90;;;7.90;99.90;;;;;;5405444;26;20821;-66
2024/04/17 00:18:33;;;;;;;0.80;0.70;;;7.90;99.90;;;;;;5405713;26;21025;-67
2024/04/17 00:20:59;;;;;;;1.23;0.80;;;7.90;99.90;;;;;;5405362;26;20444;-66
2024/04/17 00:23:25;;;;;;;1.20;1.00;;;7.80;99.90;;;;;;5405463;26;20301;-67
2024/04/17 00:25:51;;;;;;;1.50;0.80;;;7.80;99.90;;;;;;5405173;26;20235;-67
2024/04/17 00:28:16;;;;;;;1.60;1.00;;;7.70;99.90;;;;;;5405947;26;20503;-67
2024/04/17 00:30:42;;;;;;;2.00;1.00;;;7.70;99.90;;;;;;5405318;26;20456;-67
2024/04/17 00:33:07;;;;;;;1.67;0.90;;;7.70;99.90;;;;;;5405676;26;20259;-67
2024/04/17 00:35:33;;;;;;;1.23;0.97;;;7.80;99.90;;;;;;5405102;26;20225;-67
2024/04/17 00:37:58;;;;;;;1.93;1.03;;;7.90;99.90;;;;;;5405201;26;20753;-67
2024/04/17 00:40:24;;;;;;;1.83;0.90;;;7.90;99.90;;;;;;5403824;26;21696;-68
2024/04/17 00:42:51;;;;;;;1.43;1.10;;;8.10;99.90;;;;;;5405832;26;20226;-66
2024/04/17 00:45:16;;;;;;;1.30;1.20;;;8.00;99.90;;;;;;5405750;26;20267;-66
2024/04/17 00:47:42;;;;;;;2.20;1.17;;;8.20;99.90;;;;;;5405029;26;20979;-67
2024/04/17 00:50:09;;;;;;;1.40;1.30;;;8.20;99.90;;;;;;5405229;26;20700;-67
2024/04/17 00:52:35;;;;;;;1.37;1.17;;;8.20;99.90;;;;;;5404202;26;20265;-67
2024/04/17 00:55:04;;;;;;;1.33;1.10;;;8.10;99.90;;;;;;5405007;26;20536;-66
2024/04/17 00:57:31;;;;;;;1.30;0.90;;;8.20;99.90;;;;;;5405197;26;20901;-67
2024/04/17 00:59:56;;;;;;;2.13;1.40;;;8.40;99.90;;;;;;5405131;26;20448;-67
2024/04/17 01:02:22;;;;;;;2.90;1.20;;;8.30;99.90;;;;;;5404069;26;20896;-67
2024/04/17 01:04:47;;;;;;;1.13;0.90;;;8.40;99.90;;;;;;5404687;26;20273;-67
2024/04/17 01:07:13;;;;;;;1.33;1.23;;;8.50;99.90;;;;;;5404911;26;20330;-67
2024/04/17 01:09:38;;;;;;;1.40;1.20;;;8.50;99.90;;;;;;5404902;26;20219;-67
2024/04/17 01:12:07;;;;;;;1.30;1.20;;;8.30;99.90;;;;;;5404057;26;20269;-67
2024/04/17 01:14:32;;;;;;;1.40;1.30;;;8.50;99.90;;;;;;5404127;26;20289;-67
2024/04/17 01:16:58;;;;;;;1.87;1.57;;;8.30;99.90;;;;;;5404618;26;20465;-66
2024/04/17 01:19:24;;;;;;;2.73;1.17;;;8.10;99.90;;;;;;5404560;26;20278;-66
2024/04/17 01:21:49;;;;;;;3.00;1.40;;;8.00;99.90;;;;;;5402766;26;20948;-67
2024/04/17 01:24:15;;;;;;;1.90;1.53;;;8.10;99.90;;;;;;5403823;26;20304;-66
2024/04/17 01:26:40;;;;;;;1.30;1.13;;;8.20;99.90;;;;;;5404569;26;20303;-67
2024/04/17 01:29:06;;;;;;;1.33;1.10;;;8.00;99.90;;;;;;5404463;26;20332;-66
2024/04/17 01:31:31;;;;;;;2.17;1.30;;;7.90;99.90;;;;;;5404673;26;20266;-67
2024/04/17 01:33:57;;;;;;;1.27;1.00;;;7.90;99.90;;;;;;5404279;26;20941;-66
2024/04/17 01:36:22;;;;;;;1.23;1.13;;;8.00;99.90;;;;;;5404497;26;20702;-67
2024/04/17 01:38:48;;;;;;;2.30;1.47;;;8.00;99.90;;;;;;5404245;26;20875;-67
2024/04/17 01:41:14;;;;;;;3.30;1.33;;;8.00;99.90;;;;;;5404567;26;20775;-67
2024/04/17 01:43:39;;;;;;;1.60;1.50;;;7.90;99.90;;;;;;5404131;26;20333;-66
2024/04/17 01:46:05;;;;;;;1.10;0.90;;;7.90;99.90;;;;;;5404454;26;20228;-67
2024/04/17 01:48:31;;;;;;;1.40;1.10;;;8.00;99.90;;;;;;5404310;26;20218;-66
2024/04/17 01:50:56;;;;;;;1.10;0.90;;;8.10;99.90;;;;;;5404599;26;20218;-67
2024/04/17 01:53:22;;;;;;;1.67;1.57;;;8.10;99.90;;;;;;5404170;26;20231;-67
2024/04/17 01:55:47;;;;;;;1.97;1.77;;;8.10;99.90;;;;;;5404142;26;20235;-67
2024/04/17 01:58:13;;;;;;;1.43;1.20;;;8.10;99.90;;;;;;5403936;26;20222;-67
2024/04/17 02:00:39;;;;;;;1.47;1.37;;;8.40;99.90;;;;;;5404297;26;20219;-67
2024/04/17 02:03:04;;;;;;;2.90;1.80;;;8.30;99.90;;;;;;5404095;26;20227;-67
2024/04/17 02:05:30;;;;;;;2.20;1.40;;;8.30;99.90;;;;;;5403684;26;20473;-67
2024/04/17 02:07:56;;;;;;;2.00;1.30;;;8.20;99.90;;;;;;5404331;26;20377;-68
2024/04/17 02:10:22;;;;;;;1.83;1.73;;;8.30;99.90;;;;;;5403673;26;20262;-66
2024/04/17 02:12:48;;;;;;;1.90;1.80;;;8.30;99.90;;;;;;5402506;26;20271;-67
2024/04/17 02:15:14;;;;;;;1.83;1.10;;;8.30;99.90;;;;;;5403411;26;20463;-67
2024/04/17 02:17:40;;;;;;;3.73;1.67;;;8.40;99.90;;;;;;5403614;26;20286;-68
2024/04/17 02:20:07;;;;;;;1.83;1.70;;;8.10;99.90;;;;;;5403562;26;20342;-67
2024/04/17 02:22:32;;;;;;;2.17;1.97;;;8.20;99.90;;;;;;5403791;26;20228;-68
2024/04/17 02:24:58;;;;;;;1.50;1.20;;;8.00;99.90;;;;;;5403534;26;20450;-67
2024/04/17 02:27:23;;;;;;;5.00;2.13;;;8.20;99.90;;;;;;5403566;26;20281;-67
2024/04/17 02:29:51;;;;;;;1.70;1.60;;;8.20;99.90;;;;;;5403678;26;20214;-67
2024/04/17 02:32:17;;;;;;;3.33;2.00;;;8.00;99.90;;;;;;5403456;26;20259;-67
2024/04/17 02:34:42;;;;;;;1.83;1.57;;;8.20;99.90;;;;;;5403558;26;21033;-67
2024/04/17 02:37:08;;;;;;;1.70;1.60;;;8.20;99.90;;;;;;5403362;26;20467;-68
2024/04/17 02:39:34;;;;;;;1.70;1.60;;;8.10;99.90;;;;;;5403561;26;20261;-67
2024/04/17 02:41:59;;;;;;;1.60;1.50;;;8.10;99.90;;;;;;5403355;26;20224;-67
2024/04/17 02:44:25;;;;;;;5.83;1.80;;;8.00;99.90;;;;;;5401417;26;20235;-67
2024/04/17 02:46:50;;;;;;;1.70;1.60;;;8.00;99.90;;;;;;5403231;26;20230;-67
2024/04/17 02:49:16;;;;;;;2.20;1.77;;;7.90;99.90;;;;;;5403317;26;20217;-67
2024/04/17 02:51:42;;;;;;;2.33;2.23;;;7.90;99.90;;;;;;5403401;26;20263;-68
2024/04/17 02:54:08;;;;;;;1.60;1.50;;;8.10;99.90;;;;;;5402956;26;20230;-67
2024/04/17 02:56:33;;;;;;;1.93;1.83;;;8.10;99.90;;;;;;5403074;26;21007;-67
2024/04/17 02:58:59;;;;;;;2.90;1.70;;;8.00;99.90;;;;;;5402938;26;20239;-67
2024/04/17 03:01:24;;;;;;;2.40;2.20;;;8.00;99.90;;;;;;5403235;26;20489;-68
2024/04/17 03:03:50;;;;;;;2.63;1.80;;;8.00;99.90;;;;;;5402774;26;20319;-67
2024/04/17 03:06:16;;;;;;;2.30;2.10;;;7.90;99.90;;;;;;5402520;26;20305;-67
2024/04/17 03:08:41;;;;;;;1.70;1.50;;;7.90;99.90;;;;;;5402684;26;20298;-67
2024/04/17 03:11:07;;;;;;;1.57;1.47;;;8.10;99.90;;;;;;5403229;26;20261;-67
2024/04/17 03:13:32;;;;;;;1.60;1.50;;;8.10;99.90;;;;;;5401588;26;20557;-67
2024/04/17 03:16:02;;;;;;;1.77;1.67;;;8.10;99.90;;;;;;5402886;26;20713;-67
2024/04/17 03:18:29;;;;;;;3.63;1.60;;;7.90;99.90;;;;;;5402503;26;20257;-68
2024/04/17 03:21:01;;;;;;;1.77;1.67;;;8.00;99.90;;;;;;5402625;26;20512;-68
2024/04/17 03:23:26;;;;;;;1.50;1.40;;;8.00;99.90;;;;;;5402155;26;20510;-67
2024/04/17 03:26:00;;;;;;;1.50;1.40;;;8.00;99.90;;;;;;5405116;26;20465;-67
2024/04/17 03:28:26;;;;;;;1.83;1.70;;;7.90;99.90;;;;;;5406301;26;20318;-67
2024/04/17 03:30:52;;;;;;;2.23;2.03;;;7.80;99.90;;;;;;5405915;26;20533;-68
2024/04/17 03:33:18;;;;;;;1.97;1.83;;;7.80;99.90;;;;;;5406115;26;20441;-67
2024/04/17 03:35:58;;;;;;;2.80;2.60;;;7.70;99.90;;;;;;5405669;26;20507;-68
2024/04/17 03:38:25;;;;;;;3.37;3.10;;;7.60;99.90;;;;;;5405839;26;20217;-67
2024/04/17 03:40:51;;;;;;;2.97;2.77;;;7.60;99.90;;;;;;5405700;26;20496;-67
2024/04/17 03:43:16;;;;;;;3.60;3.30;;;7.60;99.90;;;;;;5405574;26;20858;-67
2024/04/17 03:45:42;;;;;;;3.60;3.30;;;7.50;99.90;;;;;;5405428;26;20461;-67
2024/04/17 03:48:08;;;;;;;4.13;3.50;;;7.50;99.90;;;;;;5406235;26;20271;-67
2024/04/17 03:50:33;;;;;;;4.27;3.97;;;7.60;99.90;;;;;;5405644;26;20223;-67
2024/04/17 03:52:59;;;;;;;4.90;4.50;;;7.90;99.90;;;;;;5405827;26;20310;-67
2024/04/17 03:55:24;;;;;;;3.50;3.20;;;8.00;99.90;;;;;;5405426;26;20227;-68
2024/04/17 03:57:50;;;;;;;3.63;3.33;;;8.10;99.90;;;;;;5405708;26;20235;-68
2024/04/17 04:00:16;;;;;;;3.80;3.50;;;8.20;99.90;;;;;;5405675;26;20351;-68
2024/04/17 04:02:41;;;;;;;4.27;3.90;;;8.20;99.90;;;;;;5405827;26;20332;-67
2024/04/17 04:05:07;;;;;;;3.90;3.60;;;8.30;99.90;;;;;;5405373;26;20871;-67
2024/04/17 04:07:32;;;;;;;4.00;3.70;;;8.40;99.90;;;;;;5404242;26;20239;-67
2024/04/17 04:09:58;;;;;;;4.37;4.00;;;8.50;99.90;;;;;;5404594;26;20231;-68
2024/04/17 04:12:24;;;;;;;4.80;4.40;;;8.50;99.90;;;;;;5404893;26;20329;-67
2024/04/17 04:14:49;;;;;;;4.50;4.10;;;8.50;99.90;;;;;;5405656;26;20273;-67
2024/04/17 04:17:15;;;;;;;5.50;4.00;;;8.50;99.90;;;;;;5405213;26;20303;-67
2024/04/17 04:19:40;;;;;;;4.97;4.50;;;8.40;99.90;;;;;;5405878;26;20264;-68
2024/04/17 04:22:06;;;;;;;5.40;3.90;;;8.40;99.90;;;;;;5405448;26;20225;-68
2024/04/17 04:24:31;;;;;;;3.60;3.30;;;8.40;99.90;;;;;;5405713;26;20716;-67
2024/04/17 04:26:57;;;;;;;5.13;4.63;;;8.30;99.90;;;;;;5405131;26;20228;-67
2024/04/17 04:29:22;;;;;;;4.30;3.90;;;8.40;99.90;;;;;;5405648;26;20325;-68
2024/04/17 04:31:48;;;;;;;4.20;3.80;;;8.50;99.90;;;;;;5407527;26;20260;-68
2024/04/17 04:34:14;;;;;;;3.50;3.00;;;8.40;99.90;;;;;;5403954;26;20239;-67
2024/04/17 04:36:39;;;;;;;3.67;3.37;;;8.40;99.90;;;;;;5404079;26;20287;-67
2024/04/17 04:39:05;;;;;;;3.67;3.40;;;8.40;99.90;;;;;;5405528;26;20235;-67
2024/04/17 04:41:30;;;;;;;4.00;3.70;;;8.40;99.90;;;;;;5405169;26;20429;-67
2024/04/17 04:43:56;;;;;;;5.23;4.70;;;8.40;99.90;;;;;;5404992;26;20227;-67
2024/04/17 04:46:21;;;;;;;4.37;3.93;;;8.50;99.90;;;;;;5404950;26;20271;-67
2024/04/17 04:48:47;;;;;;;4.00;3.70;;;8.60;99.90;;;;;;5405200;26;20220;-68
2024/04/17 04:51:12;;;;;;;3.00;2.80;;;8.60;99.90;;;;;;5404987;26;20709;-68
2024/04/17 04:53:38;;;;;;;3.50;3.20;;;8.60;99.90;;;;;;5404946;26;20218;-67
2024/04/17 04:56:05;;;;;;;2.60;2.40;;;8.60;99.90;;;;;;5404791;26;20236;-68
2024/04/17 04:58:31;;;;;;;3.53;3.23;;;8.50;99.90;;;;;;5404567;26;20243;-68
2024/04/17 05:00:57;;;;;;;3.37;3.07;;;8.50;99.90;;;;;;5404858;26;20454;-67
2024/04/17 05:03:22;;;;;;;2.80;2.60;;;8.60;99.90;;;;;;5404301;26;20453;-67
2024/04/17 05:05:48;;;;;;;4.53;2.50;;;8.50;99.90;;;;;;5404800;26;20255;-68
2024/04/17 05:08:14;;;;;;;2.30;2.10;;;8.30;99.90;;;;;;5404409;26;20265;-68
2024/04/17 05:10:39;;;;;;;2.57;2.37;;;8.40;99.90;;;;;;5404538;26;20223;-68
2024/04/17 05:13:05;;;;;;;2.80;2.60;;;8.50;99.90;;;;;;5404023;26;20333;-68
2024/04/17 05:15:31;;;;;;;4.33;3.30;;;8.60;99.90;;;;;;5403141;26;20228;-67
2024/04/17 05:17:56;;;;;;;3.23;2.93;;;8.70;99.90;;;;;;5404529;26;20907;-67
2024/04/17 05:20:22;;;;;;;3.40;3.10;;;8.70;99.90;;;;;;5404176;26;21356;-67
2024/04/17 05:22:48;;;;;;;2.77;2.57;;;8.80;99.90;;;;;;5402409;26;20330;-67
2024/04/17 05:25:15;;;;;;;3.00;2.70;;;8.80;99.90;;;;;;5403046;26;20451;-67
2024/04/17 05:27:41;;;;;;;2.60;2.40;;;8.90;99.90;;;;;;5404552;26;20509;-68
2024/04/17 05:30:08;;;;;;;2.30;2.10;;;9.00;99.90;;;;;;5403984;26;21100;-67
2024/04/17 05:32:34;;;;;;;3.70;3.10;;;9.00;99.90;;;;;;5404021;26;20225;-67
2024/04/17 05:35:00;;;;;;;2.77;2.57;;;8.80;99.90;;;;;;5404543;26;20453;-67
2024/04/17 05:37:25;;;;;;;3.17;2.87;;;8.90;99.90;;;;;;5404308;26;20246;-67
2024/04/17 05:39:51;;;;;;;6.37;3.17;;;8.80;99.90;;;;;;5404026;26;20295;-67
2024/04/17 05:42:16;;;;;;;3.30;3.00;;;8.60;99.90;;;;;;5404163;26;20212;-67
2024/04/17 05:44:42;;;;;;;3.53;3.23;;;8.50;99.90;;;;;;5404138;26;20360;-67
2024/04/17 05:47:07;;;;;;;4.50;3.93;;;8.50;99.90;;;;;;5404266;26;20282;-66
2024/04/17 05:49:33;;;;;;;4.40;4.00;;;8.40;99.90;;;;;;5405212;26;20283;-68
2024/04/17 05:51:59;;;;;;;8.43;4.50;;;8.40;99.90;;;;;;5404624;26;20334;-68
2024/04/17 05:54:24;;;;;;;4.43;4.03;;;8.60;99.90;;;;;;5403404;26;20364;-67
2024/04/17 05:56:50;;;;;;;5.27;4.77;;;8.80;99.90;;;;;;5403871;26;20235;-68
2024/04/17 05:59:15;;;;;;;5.40;4.90;;;8.40;99.90;;;;;;5404177;26;20243;-68
2024/04/17 06:01:41;;;;;;;5.50;5.00;;;8.70;99.90;;;;;;5403794;26;20259;-68
2024/04/17 06:04:07;;;;;;;6.10;5.60;;;8.90;99.90;;;;;;5403009;26;20689;-67
2024/04/17 06:06:32;;;;;;;6.13;5.63;;;9.10;99.90;;;;;;5403650;26;20694;-66
2024/04/17 06:08:58;;;;;;;6.93;6.33;;;9.00;99.90;;;;;;5404047;26;21244;-67
2024/04/17 06:11:24;;;;;;;8.03;7.30;;;8.70;99.90;;;;;;5404357;26;20341;-66
2024/04/17 06:13:50;;;;;;;8.90;8.10;;;8.40;99.90;;;;;;5403758;26;20269;-67
2024/04/17 06:16:16;;;;;;;8.80;8.00;;;8.40;99.90;;;;;;5401802;26;20621;-65
2024/04/17 06:18:41;;;;;;;9.90;8.07;;;8.50;99.90;;;;;;5403943;26;20431;-66
2024/04/17 06:21:07;;;;;;;11.37;8.40;;;8.70;99.90;;;;;;5404192;26;20276;-66
2024/04/17 06:23:33;;;;;;;9.87;8.87;;;8.70;99.90;;;;;;5403445;26;20221;-66
2024/04/17 06:25:58;;;;;;;10.40;8.33;;;8.70;99.90;;;;;;5403810;26;20235;-67
2024/04/17 06:28:24;;;;;;;8.67;7.83;;;8.70;99.90;;;;;;5403878;26;20223;-66
2024/04/17 06:30:50;;;;;;;9.23;8.33;;;8.50;99.90;;;;;;5404224;26;20279;-66
2024/04/17 06:33:15;;;;;;;8.57;7.80;;;8.60;99.90;;;;;;5403550;26;20319;-66
2024/04/17 06:35:41;;;;;;;7.90;7.10;;;8.50;99.90;;;;;;5403495;26;20236;-65
2024/04/17 06:38:06;;;;;;;8.10;7.40;;;8.40;99.90;;;;;;5403713;26;20254;-65
2024/04/17 06:40:32;;;;;;;9.60;8.80;;;8.10;99.90;;;;;;5403333;26;20711;-64
2024/04/17 06:42:57;;;;;;;8.73;7.83;;;7.90;99.90;;;;;;5403666;26;20264;-67
2024/04/17 06:45:23;;;;;;;7.13;6.43;;;8.00;99.90;;;;;;5403312;26;20228;-66
2024/04/17 06:47:48;;;;;;;9.40;8.33;;;8.10;99.90;;;;;;5403660;26;20270;-66
2024/04/17 06:50:14;;;;;;;7.40;6.50;;;8.20;99.90;;;;;;5403087;26;20329;-66
2024/04/17 06:52:40;;;;;;;7.80;7.10;;;8.10;99.90;;;;;;5403723;26;20329;-66
2024/04/17 06:55:05;;;;;;;7.50;6.80;;;8.20;99.90;;;;;;5403226;26;20275;-66
2024/04/17 06:57:31;;;;;;;7.00;6.30;;;8.20;99.90;;;;;;5403553;26;20231;-66
2024/04/17 06:59:56;;;;;;;7.37;6.67;;;8.40;99.90;;;;;;5402381;26;20615;-67
2024/04/17 07:02:22;;;;;;;7.80;7.07;;;8.50;99.90;;;;;;5403202;26;20316;-67
2024/04/17 07:04:47;;;;;;;7.73;7.03;;;8.50;99.90;;;;;;5402868;26;20220;-66
2024/04/17 07:07:13;;;;;;;9.03;8.13;;;8.50;99.90;;;;;;5402515;26;20224;-68
2024/04/17 07:09:39;;;;;;;8.10;6.77;;;8.70;99.90;;;;;;5402579;26;20220;-68
2024/04/17 07:12:05;;;;;;;7.00;6.40;;;8.60;99.90;;;;;;5403309;26;20252;-69
2024/04/17 07:14:31;;;;;;;7.60;6.90;;;8.60;99.90;;;;;;5402766;26;20556;-69
2024/04/17 07:16:57;;;;;;;6.90;6.20;;;8.60;99.90;;;;;;5402247;26;20449;-69
2024/04/17 07:19:24;;;;;;;6.60;6.00;;;8.70;99.90;;;;;;5403031;26;20243;-68
2024/04/17 07:21:50;;;;;;;7.43;6.72;;;8.70;99.90;;;;;;5401918;26;20894;-69
2024/04/17 07:24:16;;;;;;;6.00;5.50;;;8.70;99.90;;;;;;5402924;26;20220;-69
2024/04/17 07:26:42;;;;;;;5.83;5.33;;;8.80;99.90;;;;;;5402552;26;21032;-71
2024/04/17 07:29:07;;;;;;;5.10;4.60;;;8.60;99.90;;;;;;5402676;26;20216;-69
2024/04/17 07:31:33;;;;;;;6.07;5.53;;;8.40;99.90;;;;;;5402501;26;20227;-70
2024/04/17 07:33:58;;;;;;;5.27;4.87;;;8.50;99.90;;;;;;5402348;26;20255;-70
2024/04/17 07:36:24;;;;;;;5.37;4.87;;;8.50;99.90;;;;;;5402503;26;20384;-69
2024/04/17 07:38:49;;;;;;;5.40;4.70;;;8.50;99.90;;;;;;5402210;26;20326;-68
2024/04/17 07:41:15;;;;;;;9.50;3.33;;;8.60;99.90;;;;;;5403053;26;20328;-67
2024/04/17 07:43:40;;;;;;;4.60;4.20;;;8.40;99.90;;;;;;5402510;26;20705;-68
2024/04/17 07:46:06;;;;;;;5.00;4.20;;;8.40;99.90;;;;;;5402358;26;20830;-71
2024/04/17 07:48:32;;;;;;;4.27;3.87;;;8.50;99.90;;;;;;5402161;26;20216;-69
2024/04/17 07:50:58;;;;;;;4.83;4.43;;;8.70;99.90;;;;;;5402409;26;20727;-69
2024/04/17 07:53:23;;;;;;;4.27;3.83;;;8.80;99.90;;;;;;5401865;26;20441;-69
2024/04/17 07:55:49;;;;;;;5.77;4.87;;;8.60;99.90;;;;;;5402185;26;20239;-68
2024/04/17 07:58:14;;;;;;;6.18;5.10;;;8.70;99.90;;;;;;5401285;26;20340;-68
2024/04/17 08:00:41;;;;;;;5.73;5.20;;;8.80;99.90;;;;;;5402115;26;20217;-68
2024/04/17 08:03:07;;;;;;;6.07;5.10;;;8.80;99.90;;;;;;5402399;26;20586;-69
2024/04/17 08:05:33;;;;;;;6.60;5.90;;;8.50;99.90;;;;;;5402634;26;20491;-68
2024/04/17 08:07:59;;;;;;;6.80;6.13;;;8.30;99.90;;;;;;5403132;26;20438;-69
2024/04/17 08:10:24;;;;;;;8.27;7.13;;;8.40;99.90;;;;;;5403113;26;21135;-68
2024/04/17 08:12:53;;;;;;;8.20;7.40;;;8.40;99.90;;;;;;5406583;26;20339;-70
2024/04/17 08:15:21;;;;;;;7.33;6.63;;;8.40;99.90;;;;;;5405985;26;20267;-69
2024/04/17 08:17:47;;;;;;;7.93;7.10;;;8.40;99.90;;;;;;5406102;26;20456;-68
2024/04/17 08:20:13;;;;;;;8.10;7.27;;;8.30;99.90;;;;;;5407053;26;20436;-69
2024/04/17 08:22:38;;;;;;;7.00;6.30;;;8.40;99.90;;;;;;5404930;26;20491;-68
2024/04/17 08:25:04;;;;;;;7.63;6.87;;;8.50;99.90;;;;;;5406082;26;20380;-67
2024/04/17 08:27:30;;;;;;;10.07;8.37;;;8.80;99.90;;;;;;5405762;26;20521;-69
2024/04/17 08:29:55;;;;;;;7.17;6.57;;;8.80;99.90;;;;;;5405419;26;20440;-68
2024/04/17 08:32:21;;;;;;;9.60;8.60;;;8.80;99.90;;;;;;5407667;26;20217;-70
2024/04/17 08:34:47;;;;;;;9.73;7.80;;;8.80;99.90;;;;;;5412451;26;20226;-73
2024/04/17 08:37:12;;;;;;;9.20;7.00;;;8.90;99.90;;;;;;5409884;26;20789;-74
2024/04/17 08:39:38;;;;;;;8.33;7.43;;;9.10;99.90;;;;;;5405454;26;20208;-71
2024/04/17 08:42:07;;;;;;;7.90;7.10;;;9.40;99.90;;;;;;5405434;26;20287;-72
2024/04/17 08:44:40;;;;;;;8.10;7.30;;;9.40;99.90;;;;;;5406601;26;20269;-71
2024/04/17 08:47:08;;;;;;;8.80;7.90;;;9.50;99.90;;;;;;5404907;26;21111;-69
2024/04/17 08:49:34;;;;;;;7.67;6.87;;;9.70;99.90;;;;;;5406183;26;20845;-70
2024/04/17 08:52:05;;;;;;;9.00;7.07;;;9.80;99.90;;;;;;5405882;26;20499;-71
2024/04/17 08:54:30;;;;;;;6.50;5.90;;;10.00;99.90;;;;;;5405683;26;20230;-71
2024/04/17 08:56:56;;;;;;;7.10;6.50;;;10.10;99.90;;;;;;5405402;26;20540;-71
2024/04/17 08:59:22;;;;;;;8.30;7.60;;;9.90;99.90;;;;;;5400161;26;21410;-68
2024/04/17 09:01:49;;;;;;;7.70;7.00;;;9.80;99.90;;;;;;5406796;26;20219;-66
2024/04/17 09:04:17;;;;;;;8.33;7.53;;;9.70;99.90;;;;;;5405220;26;20811;-67
2024/04/17 09:06:43;;;;;;;7.70;6.70;;;9.60;99.90;;;;;;5405364;26;21388;-68
2024/04/17 09:09:12;;;;;;;8.20;7.50;;;9.40;99.90;;;;;;5405408;26;20511;-67
2024/04/17 09:11:40;;;;;;;8.53;7.60;;;9.50;99.90;;;;;;5406949;26;20500;-68
2024/04/17 09:14:05;;;;;;;8.10;7.07;;;9.40;99.90;;;;;;5406641;26;20539;-67
2024/04/17 09:16:31;;;;;;;6.77;6.27;;;9.00;99.90;;;;;;5405923;26;20494;-67
2024/04/17 09:18:57;;;;;;;6.50;5.90;;;8.70;99.90;;;;;;5405953;26;20223;-67
2024/04/17 09:21:22;;;;;;;7.20;6.50;;;8.50;99.90;;;;;;5405439;26;20219;-66
2024/04/17 09:23:48;;;;;;;8.20;5.87;;;8.30;99.90;;;;;;5404433;26;20243;-67
2024/04/17 09:26:14;;;;;;;12.23;7.60;;;8.20;99.90;;;;;;5405449;26;20227;-70
2024/04/17 09:28:40;;;;;;;6.70;6.20;;;8.10;99.90;;;;;;5405861;26;20219;-67
2024/04/17 09:31:06;;;;;;;7.90;7.10;;;7.90;99.90;;;;;;5405306;26;20516;-70
2024/04/17 09:33:32;;;;;;;7.70;7.03;;;7.90;99.90;;;;;;5405049;26;20622;-67
2024/04/17 09:36:03;;;;;;;7.33;6.70;;;8.00;99.90;;;;;;5404931;26;20227;-69
2024/04/17 09:38:31;;;;;;;6.30;5.70;;;8.00;99.90;;;;;;5404462;26;20568;-66
2024/04/17 09:40:56;;;;;;;8.67;7.87;;;8.00;99.90;;;;;;5404796;26;20508;-68
2024/04/17 09:43:24;;;;;;;8.10;7.30;;;8.20;99.90;;;;;;5404372;26;20946;-67
2024/04/17 09:45:58;;;;;;;8.10;7.30;;;8.20;99.90;;;;;;5404753;26;20324;-66
2024/04/17 09:48:27;;;;;;;7.60;7.00;;;8.40;99.90;;;;;;5404562;26;20442;-68
2024/04/17 09:51:04;;;;;;;8.93;7.00;;;8.40;99.90;;;;;;5404383;26;20433;-66
2024/04/17 09:53:37;;;;;;;9.47;8.57;;;8.50;99.90;;;;;;5404522;26;20502;-69
2024/04/17 09:56:04;;;;;;;9.43;8.50;;;8.70;99.90;;;;;;5404176;26;20528;-69
2024/04/17 09:58:34;;;;;;;9.40;8.50;;;8.70;99.90;;;;;;5404564;26;20456;-68
2024/04/17 10:01:04;;;;;;;9.50;8.50;;;8.80;99.90;;;;;;5405136;26;20441;-69
2024/04/17 10:03:34;;;;;;;7.70;7.00;;;8.70;99.90;;;;;;5404736;26;20449;-68
2024/04/17 10:06:00;;;;;;;7.30;6.60;;;8.30;99.90;;;;;;5404106;26;21092;-70
2024/04/17 10:08:33;;;;;;;8.10;7.30;;;8.20;99.90;;;;;;5404537;26;20934;-71
2024/04/17 10:10:58;;;;;;;6.87;6.27;;;8.30;99.90;;;;;;5404112;26;20454;-70
2024/04/17 10:13:24;;;;;;;7.93;6.73;;;8.40;99.90;;;;;;5403834;26;20434;-69
2024/04/17 10:15:54;;;;;;;7.87;7.17;;;8.70;99.90;;;;;;5404249;26;20244;-69
2024/04/17 10:18:21;;;;;;;6.43;5.20;;;8.90;99.90;;;;;;5403978;26;20215;-68
2024/04/17 10:20:47;;;;;;;6.45;5.85;;;8.90;99.90;;;;;;5402479;26;20356;-68
2024/04/17 10:23:15;;;;;;;9.37;6.67;;;9.20;99.90;;;;;;5404070;26;20209;-67
2024/04/17 10:25:56;;;;;;;9.20;6.80;;;9.00;99.90;;;;;;5404520;26;20707;-68
2024/04/17 10:28:22;;;;;;;8.20;7.40;;;8.80;99.90;;;;;;5404438;26;20507;-67
2024/04/17 10:30:48;;;;;;;8.70;7.90;;;9.00;99.90;;;;;;5404389;26;20846;-67
2024/04/17 10:33:33;;;;;;;8.27;7.57;;;9.30;99.90;;;;;;5403502;26;20293;-68
2024/04/17 10:36:04;;;;;;;11.07;9.80;;;9.70;99.90;;;;;;5402468;26;20512;-68
2024/04/17 10:38:31;;;;;;;8.70;8.03;;;9.90;99.90;;;;;;5403337;26;20497;-69
2024/04/17 10:40:58;;;;;;;8.97;8.23;;;10.10;99.90;;;;;;5403776;26;20469;-67
2024/04/17 10:43:24;;;;;;;12.17;9.20;;;9.90;99.90;;;;;;5403288;26;21249;-68
2024/04/17 10:45:57;;;;;;;8.50;7.67;;;10.10;99.90;;;;;;5404047;26;20482;-67
2024/04/17 10:48:24;;;;;;;8.43;7.63;;;10.30;99.90;;;;;;5404130;26;20497;-67
2024/04/17 10:50:50;;;;;;;7.97;7.20;;;10.50;99.90;;;;;;5403964;26;20442;-69
2024/04/17 10:53:16;;;;;;;9.10;8.30;;;10.40;99.90;;;;;;5403671;26;20567;-68
2024/04/17 10:55:42;;;;;;;9.13;8.23;;;10.70;99.90;;;;;;5402596;26;20236;-68
2024/04/17 10:58:12;;;;;;;9.43;7.55;;;10.70;99.90;;;;;;5402341;26;20356;-68
2024/04/17 11:00:38;;;;;;;11.50;7.77;;;10.80;99.90;;;;;;5403835;26;20218;-68
2024/04/17 11:03:04;;;;;;;11.23;7.57;;;11.20;99.90;;;;;;5403186;26;20518;-67
2024/04/17 11:05:33;;;;;;;9.23;8.07;;;11.30;99.90;;;;;;5403686;26;20793;-68
2024/04/17 11:07:58;;;;;;;9.83;7.77;;;11.30;99.90;;;;;;5403998;26;20558;-68
2024/04/17 11:10:25;;;;;;;8.70;7.80;;;11.10;99.90;;;;;;5403534;26;21281;-67
2024/04/17 11:12:50;;;;;;;8.43;7.73;;;10.90;99.90;;;;;;5403050;26;20796;-68
2024/04/17 11:15:16;;;;;;;10.23;9.13;;;10.60;99.90;;;;;;5402922;26;20528;-67
2024/04/17 11:17:42;;;;;;;10.03;8.43;;;10.60;99.90;;;;;;5403929;26;20315;-69
2024/04/17 11:20:09;;;;;;;7.10;6.10;;;10.80;99.90;;;;;;5403491;26;20725;-68
2024/04/17 11:22:35;;;;;;;8.10;6.10;;;11.60;99.90;;;;;;5403831;26;20503;-67
2024/04/17 11:25:04;;;;;;;5.60;5.03;;;12.40;99.90;;;;;;5403804;26;20444;-67
2024/04/17 11:27:30;;;;;;;6.40;5.80;;;12.60;99.90;;;;;;5403181;26;20507;-67
2024/04/17 11:30:01;;;;;;;7.73;5.97;;;12.90;99.90;;;;;;5403452;26;20443;-68
2024/04/17 11:32:28;;;;;;;5.80;4.67;;;12.60;99.90;;;;;;5403377;26;20509;-68
2024/04/17 11:34:54;;;;;;;5.50;4.20;;;11.20;99.90;;;;;;5403326;26;20442;-68
2024/04/17 11:37:19;;;;;;;4.93;4.43;;;10.80;99.90;;;;;;5403478;26;20498;-67
2024/04/17 11:39:45;;;;;;;7.47;5.50;;;10.50;99.90;;;;;;5432042;26;21030;-67
2024/04/17 11:42:11;;;;;;;5.00;4.50;;;10.40;99.90;;;;;;5403237;26;20219;-67
2024/04/17 11:44:39;;;;;;;5.53;4.93;;;11.40;99.90;;;;;;5402352;26;20230;-69
2024/04/17 11:47:09;;;;;;;5.80;5.30;;;11.80;99.90;;;;;;5405712;26;20454;-68
2024/04/17 11:49:35;;;;;;;5.13;4.50;;;11.80;99.90;;;;;;5406170;26;20730;-68
2024/04/17 11:52:04;;;;;;;7.90;5.47;;;11.80;99.90;;;;;;5405692;26;20531;-66
2024/04/17 11:54:29;;;;;;;6.27;4.90;;;12.20;99.90;;;;;;5404210;26;21346;-67
2024/04/17 11:56:55;;;;;;;6.83;4.60;;;12.40;99.90;;;;;;5406574;26;20574;-70
2024/04/17 11:59:21;;;;;;;5.80;4.40;;;12.60;99.90;;;;;;5404218;26;20250;-70
2024/04/17 12:01:46;;;;;;;7.00;4.40;;;12.40;99.90;;;;;;5406328;26;20230;-67
2024/04/17 12:04:12;;;;;;;5.03;4.53;;;12.90;99.90;;;;;;5405520;26;20218;-67
2024/04/17 12:06:37;;;;;;;7.33;4.53;;;14.00;99.90;;;;;;5406047;26;20335;-68
2024/04/17 12:09:03;;;;;;;6.27;4.30;;;14.40;99.90;;;;;;5405740;26;20276;-67
2024/04/17 12:11:29;;;;;;;5.70;4.60;;;13.70;99.90;;;;;;5406024;26;20736;-67
2024/04/17 12:13:55;;;;;;;11.20;4.80;;;13.40;99.90;;;;;;5406000;26;20443;-68
2024/04/17 12:16:20;;;;;;;5.30;4.80;;;13.40;99.90;;;;;;5405397;26;21622;-67
2024/04/17 12:18:46;;;;;;;10.93;5.33;;;13.70;99.90;;;;;;5405597;26;20215;-68
2024/04/17 12:21:12;;;;;;;9.07;5.13;;;13.60;99.90;;;;;;5405716;26;20221;-68
2024/04/17 12:23:37;;;;;;;4.67;4.17;;;13.70;99.90;;;;;;5405324;26;20221;-68
2024/04/17 12:28:48;;;;;;;7.30;4.47;;;12.70;99.90;;;;;;5405839;26;20737;-67
2024/04/17 12:31:14;;;;;;;7.40;4.40;;;12.30;99.90;;;;;;5405734;26;20457;-68
2024/04/17 12:33:39;;;;;;;7.33;4.40;;;11.80;99.90;;;;;;5405690;26;20704;-68
2024/04/17 12:36:07;;;;;;;8.87;4.57;;;11.70;99.90;;;;;;5405498;26;20291;-67
2024/04/17 12:38:34;;;;;;;6.13;3.67;;;11.70;99.90;;;;;;5405447;26;20257;-67
2024/04/17 12:40:59;;;;;;;5.90;3.50;;;12.00;99.90;;;;;;5405599;26;20637;-67
2024/04/17 12:43:25;;;;;;;7.77;4.27;;;12.00;99.90;;;;;;5405070;26;20832;-67
2024/04/17 12:45:50;;;;;;;3.67;3.00;;;12.30;99.90;;;;;;5404766;26;21831;-67
2024/04/17 12:48:16;;;;;;;3.70;3.00;;;13.60;99.50;;;;;;5405121;26;20231;-68
2024/04/17 12:50:45;;;;;;;5.20;2.57;;;13.70;97.40;;;;;;5405499;26;20217;-68
2024/04/17 12:53:11;;;;;;;4.97;2.90;;;14.10;96.50;;;;;;5403198;26;20343;-67